createdAt,value
2022-11-21T00:01:22.622Z,1.50
2022-11-21T00:03:51.032Z,1.50
2022-11-21T00:06:19.916Z,1.60
2022-11-21T00:08:48.367Z,1.50
2022-11-21T00:11:17.040Z,1.60
2022-11-21T00:13:45.503Z,1.60
2022-11-21T00:16:15.144Z,1.70
2022-11-21T00:18:45.053Z,1.60
2022-11-21T00:21:14.728Z,1.60
2022-11-21T00:23:43.298Z,1.60
2022-11-21T00:26:12.736Z,1.60
2022-11-21T00:28:40.946Z,1.50
2022-11-21T00:31:09.065Z,1.60
2022-11-21T00:33:39.040Z,1.60
2022-11-21T00:36:09.727Z,1.60
2022-11-21T00:38:38.589Z,1.60
2022-11-21T00:41:07.479Z,1.70
2022-11-21T00:43:35.798Z,1.70
2022-11-21T00:46:04.475Z,1.70
2022-11-21T00:48:33.549Z,1.70
2022-11-21T00:51:01.996Z,1.70
2022-11-21T00:53:32.020Z,1.70
2022-11-21T00:56:00.141Z,1.60
2022-11-21T00:58:28.854Z,1.60
2022-11-21T01:01:05.686Z,1.60
2022-11-21T01:03:35.306Z,1.60
2022-11-21T01:06:05.478Z,1.70
2022-11-21T01:08:36.579Z,1.70
2022-11-21T01:11:05.640Z,1.60
2022-11-21T01:13:34.320Z,1.60
2022-11-21T01:16:06.768Z,1.60
2022-11-21T01:18:34.922Z,1.60
2022-11-21T01:21:03.762Z,1.60
2022-11-21T01:23:31.972Z,1.60
2022-11-21T01:26:04.678Z,1.60
2022-11-21T01:28:32.855Z,1.60
2022-11-21T01:31:07.953Z,1.60
2022-11-21T01:33:36.341Z,1.70
2022-11-21T01:36:09.399Z,1.60
2022-11-21T01:38:37.571Z,1.70
2022-11-21T01:41:07.892Z,1.70
2022-11-21T01:43:36.145Z,1.70
2022-11-21T01:46:07.911Z,1.70
2022-11-21T01:48:40.260Z,1.70
2022-11-21T01:51:12.878Z,1.70
2022-11-21T01:53:44.271Z,1.70
2022-11-21T01:56:13.862Z,1.70
2022-11-21T01:58:44.512Z,1.80
2022-11-21T02:01:12.677Z,1.80
2022-11-21T02:03:43.518Z,1.80
2022-11-21T02:06:13.608Z,1.90
2022-11-21T02:08:43.957Z,1.90
2022-11-21T02:11:19.910Z,2.00
2022-11-21T02:13:48.147Z,2.00
2022-11-21T02:16:16.230Z,2.00
2022-11-21T02:18:44.585Z,2.10
2022-11-21T02:21:21.967Z,2.10
2022-11-21T02:24:00.206Z,2.10
2022-11-21T02:26:30.378Z,2.10
2022-11-21T02:28:59.214Z,2.10
2022-11-21T02:31:27.351Z,2.10
2022-11-21T02:33:55.472Z,2.10
2022-11-21T02:36:45.491Z,2.10
2022-11-21T02:39:19.328Z,2.10
2022-11-21T02:41:57.079Z,2.10
2022-11-21T02:44:30.669Z,2.20
2022-11-21T02:46:58.678Z,2.30
2022-11-21T02:49:36.272Z,2.30
2022-11-21T02:52:04.482Z,2.20
2022-11-21T02:54:32.764Z,2.30
2022-11-21T02:57:02.221Z,2.30
2022-11-21T02:59:30.311Z,2.30
2022-11-21T03:02:00.030Z,2.30
2022-11-21T03:04:29.180Z,2.30
2022-11-21T03:06:57.476Z,2.40
2022-11-21T03:09:25.568Z,2.40
2022-11-21T03:11:53.693Z,2.40
2022-11-21T03:14:23.153Z,2.40
2022-11-21T03:16:51.415Z,2.40
2022-11-21T03:19:19.434Z,2.50
2022-11-21T03:21:47.504Z,2.50
2022-11-21T03:24:15.648Z,2.50
2022-11-21T03:26:43.747Z,2.50
2022-11-21T03:29:11.939Z,2.60
2022-11-21T03:31:41.653Z,2.60
2022-11-21T03:34:09.795Z,2.60
2022-11-21T03:36:37.996Z,2.60
2022-11-21T03:39:06.188Z,2.60
2022-11-21T03:41:35.169Z,2.60
2022-11-21T03:44:05.208Z,2.60
2022-11-21T03:46:35.459Z,2.60
2022-11-21T03:49:05.294Z,2.60
2022-11-21T03:51:33.757Z,2.60
2022-11-21T03:54:02.125Z,2.60
2022-11-21T03:56:30.639Z,2.50
2022-11-21T03:58:58.845Z,2.50
2022-11-21T04:01:29.388Z,2.50
2022-11-21T04:04:00.687Z,2.50
2022-11-21T04:06:31.307Z,2.50
2022-11-21T04:08:59.700Z,2.50
2022-11-21T04:11:28.050Z,2.50
2022-11-21T04:13:56.169Z,2.40
2022-11-21T04:16:24.265Z,2.50
2022-11-21T04:18:52.421Z,2.40
2022-11-21T04:21:20.880Z,2.40
2022-11-21T04:23:50.433Z,2.50
2022-11-21T04:26:18.593Z,2.50
2022-11-21T04:28:46.775Z,2.50
2022-11-21T04:31:14.819Z,2.40
2022-11-21T04:33:42.930Z,2.50
2022-11-21T04:36:11.169Z,2.50
2022-11-21T04:38:39.303Z,2.50
2022-11-21T04:41:08.795Z,2.50
2022-11-21T04:43:37.010Z,2.50
2022-11-21T04:46:05.366Z,2.50
2022-11-21T04:48:33.923Z,2.40
2022-11-21T04:51:02.141Z,2.50
2022-11-21T04:53:30.253Z,2.40
2022-11-21T04:55:58.587Z,2.50
2022-11-21T04:58:28.046Z,2.50
2022-11-21T05:00:56.244Z,2.50
2022-11-21T05:03:24.399Z,2.50
2022-11-21T05:05:52.828Z,2.50
2022-11-21T05:08:21.003Z,2.60
2022-11-21T05:11:06.286Z,2.60
2022-11-21T05:13:35.947Z,2.60
2022-11-21T05:16:04.923Z,2.60
2022-11-21T05:18:33.044Z,2.60
2022-11-21T05:21:02.868Z,2.60
2022-11-21T05:23:30.975Z,2.60
2022-11-21T05:25:59.275Z,2.60
2022-11-21T05:28:27.460Z,2.60
2022-11-21T05:30:56.973Z,2.60
2022-11-21T05:33:24.988Z,2.60
2022-11-21T05:35:53.119Z,2.60
2022-11-21T05:38:21.112Z,2.60
2022-11-21T05:40:49.205Z,2.60
2022-11-21T05:43:34.631Z,2.60
2022-11-21T05:46:04.315Z,2.60
2022-11-21T05:48:34.249Z,2.60
2022-11-21T05:51:02.458Z,2.50
2022-11-21T05:53:30.523Z,2.50
2022-11-21T05:56:02.142Z,2.50
2022-11-21T05:58:30.417Z,2.40
2022-11-21T06:01:00.127Z,2.40
2022-11-21T06:03:31.301Z,2.40
2022-11-21T06:06:08.025Z,2.40
2022-11-21T06:08:37.845Z,2.40
2022-11-21T06:11:08.023Z,2.40
2022-11-21T06:13:36.779Z,2.40
2022-11-21T06:16:08.089Z,2.40
2022-11-21T06:18:38.844Z,2.40
2022-11-21T06:21:08.707Z,2.40
2022-11-21T06:23:37.470Z,2.40
2022-11-21T06:26:07.760Z,2.40
2022-11-21T06:28:37.897Z,2.40
2022-11-21T06:31:06.542Z,2.40
2022-11-21T06:33:35.517Z,2.30
2022-11-21T06:36:06.474Z,2.30
2022-11-21T06:38:34.916Z,2.30
2022-11-21T06:41:06.320Z,2.20
2022-11-21T06:43:34.667Z,2.10
2022-11-21T06:46:04.130Z,2.10
2022-11-21T06:48:32.160Z,2.00
2022-11-21T06:51:00.338Z,2.00
2022-11-21T06:53:29.955Z,1.90
2022-11-21T06:56:00.275Z,1.80
2022-11-21T06:58:29.076Z,1.70
2022-11-21T07:00:57.598Z,1.70
2022-11-21T07:03:25.710Z,1.60
2022-11-21T07:05:58.586Z,1.50
2022-11-21T07:08:27.490Z,1.30
2022-11-21T07:11:23.749Z,1.20
2022-11-21T07:13:45.723Z,1.10
2022-11-21T07:16:15.309Z,1.00
2022-11-21T07:18:44.519Z,0.90
2022-11-21T07:21:12.648Z,0.80
2022-11-21T07:23:40.946Z,0.70
2022-11-21T07:26:12.102Z,0.70
2022-11-21T07:28:40.171Z,0.60
2022-11-21T07:31:13.118Z,0.40
2022-11-21T07:33:43.366Z,0.30
2022-11-21T07:36:11.655Z,0.30
2022-11-21T07:38:41.408Z,0.30
2022-11-21T07:41:11.380Z,0.30
2022-11-21T07:43:39.435Z,0.30
2022-11-21T07:46:07.482Z,0.30
2022-11-21T07:48:35.471Z,0.30
2022-11-21T07:51:06.080Z,0.30
2022-11-21T07:53:34.425Z,0.40
2022-11-21T07:56:03.172Z,0.40
2022-11-21T07:58:32.973Z,0.40
2022-11-21T08:01:05.138Z,0.50
2022-11-21T08:03:33.484Z,0.50
2022-11-21T08:06:03.281Z,0.50
2022-11-21T08:08:32.071Z,0.40
2022-11-21T08:11:00.051Z,0.40
2022-11-21T08:13:32.391Z,0.50
2022-11-21T08:16:00.487Z,0.50
2022-11-21T08:18:28.552Z,0.40
2022-11-21T08:20:56.596Z,0.40
2022-11-21T08:23:24.593Z,0.40
2022-11-21T08:25:52.723Z,0.40
2022-11-21T08:28:20.715Z,0.30
2022-11-21T08:30:50.421Z,0.20
2022-11-21T08:33:18.691Z,0.20
2022-11-21T08:35:46.692Z,0.30
2022-11-21T08:38:15.047Z,0.30
2022-11-21T08:40:43.133Z,0.40
2022-11-21T08:43:12.307Z,0.40
2022-11-21T08:45:40.500Z,0.30
2022-11-21T08:48:12.820Z,0.40
2022-11-21T08:50:40.975Z,0.40
2022-11-21T08:53:09.131Z,0.40
2022-11-21T08:55:37.184Z,0.40
2022-11-21T08:58:05.271Z,0.30
2022-11-21T09:00:33.607Z,0.20
2022-11-21T09:03:05.641Z,0.20
2022-11-21T09:05:35.274Z,0.20
2022-11-21T09:08:03.279Z,0.10
2022-11-21T09:10:31.307Z,0.20
2022-11-21T09:12:59.661Z,0.20
2022-11-21T09:15:45.508Z,0.20
2022-11-21T09:18:13.767Z,0.20
2022-11-21T09:20:44.651Z,0.20
2022-11-21T09:23:14.599Z,0.10
2022-11-21T09:25:43.375Z,0.10
2022-11-21T09:28:13.480Z,0.00
2022-11-21T09:30:42.623Z,0.00
2022-11-21T09:33:13.275Z,-0.10
2022-11-21T09:35:42.721Z,-0.10
2022-11-21T09:38:11.125Z,-0.10
2022-11-21T09:40:44.688Z,0.10
2022-11-21T09:43:35.931Z,0.20
2022-11-21T09:46:11.257Z,0.20
2022-11-21T09:48:48.364Z,0.20
2022-11-21T09:51:20.382Z,0.20
2022-11-21T09:53:58.223Z,0.20
2022-11-21T09:56:28.896Z,0.20
2022-11-21T09:59:08.366Z,0.20
2022-11-21T10:01:38.106Z,0.10
2022-11-21T10:04:06.684Z,0.10
2022-11-21T10:06:43.807Z,0.10
2022-11-21T10:09:19.875Z,0.10
2022-11-21T10:12:14.082Z,0.10
2022-11-21T10:14:52.586Z,0.10
2022-11-21T10:17:29.924Z,0.10
2022-11-21T10:20:19.281Z,0.20
2022-11-21T10:23:03.896Z,0.20
2022-11-21T10:25:37.484Z,0.20
2022-11-21T10:28:10.850Z,0.20
2022-11-21T10:30:43.593Z,0.20
2022-11-21T10:33:16.830Z,0.20
2022-11-21T10:35:48.334Z,0.30
2022-11-21T10:38:23.335Z,0.30
2022-11-21T10:40:54.544Z,0.30
2022-11-21T10:43:49.852Z,0.40
2022-11-21T10:46:17.938Z,0.30
2022-11-21T10:48:54.978Z,0.40
2022-11-21T10:51:36.031Z,0.40
2022-11-21T10:54:30.998Z,0.40
2022-11-21T10:57:03.271Z,0.40
2022-11-21T10:59:31.830Z,0.40
2022-11-21T11:02:03.022Z,0.40
2022-11-21T11:04:40.693Z,0.40
2022-11-21T11:07:24.588Z,0.50
2022-11-21T11:09:54.923Z,0.50
2022-11-21T11:12:47.073Z,0.50
2022-11-21T11:15:20.528Z,0.60
2022-11-21T11:17:53.198Z,0.50
2022-11-21T11:20:34.677Z,0.60
2022-11-21T11:23:17.540Z,0.60
2022-11-21T11:25:53.310Z,0.60
2022-11-21T11:28:23.976Z,0.60
2022-11-21T11:30:53.944Z,0.60
2022-11-21T11:33:34.906Z,0.50
2022-11-21T11:36:16.327Z,0.60
2022-11-21T11:38:48.972Z,0.60
2022-11-21T11:41:59.519Z,0.60
2022-11-21T11:44:55.381Z,0.60
2022-11-21T11:47:32.451Z,0.60
2022-11-21T11:50:13.520Z,0.70
2022-11-21T11:52:52.288Z,0.60
2022-11-21T11:55:27.048Z,0.60
2022-11-21T11:57:59.370Z,0.60
2022-11-21T12:00:34.451Z,0.60
2022-11-21T12:03:12.100Z,0.70
2022-11-21T12:05:53.061Z,0.80
2022-11-21T12:08:43.504Z,0.90
2022-11-21T12:11:37.456Z,0.90
2022-11-21T12:14:38.365Z,1.00
2022-11-21T12:17:10.054Z,1.10
2022-11-21T12:19:39.063Z,1.10
2022-11-21T12:22:08.826Z,1.10
2022-11-21T12:24:42.517Z,1.10
2022-11-21T12:27:22.222Z,1.00
2022-11-21T12:30:09.335Z,1.10
2022-11-21T12:32:53.061Z,1.00
2022-11-21T12:35:34.070Z,0.90
2022-11-21T12:38:14.843Z,1.10
2022-11-21T12:40:51.471Z,1.20
2022-11-21T12:43:30.037Z,1.10
2022-11-21T12:46:08.335Z,1.10
2022-11-21T12:49:13.301Z,1.20
2022-11-21T12:52:31.379Z,1.10
2022-11-21T12:55:19.155Z,1.10
2022-11-21T12:57:59.422Z,1.10
2022-11-21T13:00:35.902Z,1.10
2022-11-21T13:03:33.830Z,1.20
2022-11-21T13:06:03.479Z,1.20
2022-11-21T13:08:35.885Z,1.30
2022-11-21T13:11:28.877Z,1.40
2022-11-21T13:14:04.706Z,1.50
2022-11-21T13:16:37.993Z,1.60
2022-11-21T13:19:18.223Z,1.60
2022-11-21T13:21:49.206Z,1.60
2022-11-21T13:24:50.605Z,1.70
2022-11-21T13:27:37.864Z,1.70
2022-11-21T13:30:24.849Z,1.70
2022-11-21T13:32:53.903Z,1.80
2022-11-21T13:36:09.529Z,1.70
2022-11-21T13:39:11.181Z,1.80
2022-11-21T13:42:20.677Z,1.80
2022-11-21T13:44:49.476Z,1.80
2022-11-21T13:47:56.902Z,1.70
2022-11-21T13:50:51.452Z,1.70
2022-11-21T13:53:45.934Z,1.70
2022-11-21T13:56:27.148Z,1.70
2022-11-21T13:59:10.183Z,1.70
2022-11-21T14:02:00.375Z,1.70
2022-11-21T14:05:06.292Z,1.60
2022-11-21T14:07:36.643Z,1.70
2022-11-21T14:10:08.122Z,1.70
2022-11-21T14:12:44.641Z,1.70
2022-11-21T14:15:24.282Z,1.70
2022-11-21T14:17:58.353Z,1.50
2022-11-21T14:20:28.774Z,1.50
2022-11-21T14:23:01.315Z,1.40
2022-11-21T14:25:37.458Z,1.40
2022-11-21T14:28:09.612Z,1.40
2022-11-21T14:30:41.931Z,1.40
2022-11-21T14:33:27.330Z,1.30
2022-11-21T14:35:58.965Z,1.20
2022-11-21T14:38:28.537Z,1.20
2022-11-21T14:41:27.020Z,1.20
2022-11-21T14:44:19.052Z,1.10
2022-11-21T14:46:49.191Z,1.20
2022-11-21T14:49:21.322Z,1.10
2022-11-21T14:51:51.465Z,1.10
2022-11-21T14:54:21.714Z,1.10
2022-11-21T14:56:51.850Z,1.10
2022-11-21T14:59:24.975Z,1.00
2022-11-21T15:02:04.140Z,1.10
2022-11-21T15:04:35.477Z,1.00
2022-11-21T15:07:04.427Z,1.00
2022-11-21T15:12:28.977Z,1.00
2022-11-21T15:15:01.363Z,1.00
2022-11-21T15:17:31.211Z,1.00
2022-11-21T15:20:20.470Z,0.90
2022-11-21T15:22:50.142Z,0.90
2022-11-21T15:25:20.881Z,0.90
2022-11-21T15:27:50.236Z,0.90
2022-11-21T15:30:24.798Z,0.90
2022-11-21T15:33:13.371Z,0.80
2022-11-21T15:35:44.997Z,0.70
2022-11-21T15:38:32.673Z,0.70
2022-11-21T15:41:04.140Z,0.70
2022-11-21T15:43:37.325Z,0.70
2022-11-21T15:46:07.015Z,0.60
2022-11-21T15:48:36.606Z,0.50
2022-11-21T15:51:04.795Z,0.50
2022-11-21T15:53:33.060Z,0.50
2022-11-21T15:56:01.131Z,0.40
2022-11-21T15:58:29.253Z,0.30
2022-11-21T16:00:57.590Z,0.30
2022-11-21T16:03:25.628Z,0.30
2022-11-21T16:05:55.147Z,0.30
2022-11-21T16:08:23.420Z,0.20
2022-11-21T16:10:51.505Z,0.00
2022-11-21T16:13:19.536Z,-0.10
2022-11-21T16:15:47.654Z,-0.30
2022-11-21T16:18:16.026Z,-0.50
2022-11-21T16:20:44.116Z,-0.60
2022-11-21T16:23:14.171Z,-0.70
2022-11-21T16:25:55.246Z,-0.80
2022-11-21T16:28:23.508Z,-0.90
2022-11-21T16:30:51.811Z,-1.00
2022-11-21T16:33:24.358Z,-1.10
2022-11-21T16:35:56.982Z,-1.10
2022-11-21T16:38:27.529Z,-1.00
2022-11-21T16:40:56.771Z,-1.00
2022-11-21T16:43:25.736Z,-1.00
2022-11-21T16:45:53.889Z,-1.00
2022-11-21T16:48:23.533Z,-1.10
2022-11-21T16:50:51.591Z,-1.10
2022-11-21T16:53:19.901Z,-1.10
2022-11-21T16:55:49.303Z,-1.20
2022-11-21T16:58:17.280Z,-1.30
2022-11-21T17:00:45.306Z,-1.30
2022-11-21T17:03:13.341Z,-1.40
2022-11-21T17:05:41.380Z,-1.40
2022-11-21T17:08:09.424Z,-1.40
2022-11-21T17:10:37.482Z,-1.50
2022-11-21T17:13:07.156Z,-1.50
2022-11-21T17:15:35.433Z,-1.50
2022-11-21T17:18:03.664Z,-1.50
2022-11-21T17:20:31.957Z,-1.50
2022-11-21T17:22:59.982Z,-1.60
2022-11-21T17:25:28.272Z,-1.60
2022-11-21T17:27:56.951Z,-1.60
2022-11-21T17:30:26.418Z,-1.60
2022-11-21T17:32:56.432Z,-1.60
2022-11-21T17:35:24.561Z,-1.60
2022-11-21T17:37:52.813Z,-1.70
2022-11-21T17:40:21.114Z,-1.70
2022-11-21T17:42:49.266Z,-1.70
2022-11-21T17:45:17.912Z,-1.80
2022-11-21T17:47:47.696Z,-1.80
2022-11-21T17:50:15.753Z,-1.80
2022-11-21T17:52:43.801Z,-1.80
2022-11-21T17:55:11.939Z,-1.80
2022-11-21T17:57:40.225Z,-1.80
2022-11-21T18:00:09.857Z,-1.80
2022-11-21T18:02:37.971Z,-1.80
2022-11-21T18:05:08.369Z,-1.80
2022-11-21T18:07:37.965Z,-1.80
2022-11-21T18:10:34.980Z,-1.80
2022-11-21T18:12:55.164Z,-1.80
2022-11-21T18:15:23.277Z,-1.80
2022-11-21T18:17:51.329Z,-1.90
2022-11-21T18:20:20.914Z,-1.90
2022-11-21T18:22:49.574Z,-1.90
2022-11-21T18:25:17.861Z,-1.80
2022-11-21T18:27:51.669Z,-1.80
2022-11-21T18:30:22.467Z,-1.70
2022-11-21T18:32:51.050Z,-1.70
2022-11-21T18:35:20.492Z,-1.70
2022-11-21T18:37:48.485Z,-1.70
2022-11-21T18:40:16.765Z,-1.70
2022-11-21T18:42:45.041Z,-1.70
2022-11-21T18:45:13.045Z,-1.60
2022-11-21T18:47:42.953Z,-1.60
2022-11-21T18:50:11.505Z,-1.70
2022-11-21T18:52:46.439Z,-1.70
2022-11-21T18:55:15.557Z,-1.60
2022-11-21T18:57:43.690Z,-1.60
2022-11-21T19:00:13.367Z,-1.60
2022-11-21T19:02:41.583Z,-1.70
2022-11-21T19:05:09.725Z,-1.80
2022-11-21T19:07:37.802Z,-1.80
2022-11-21T19:10:35.720Z,-1.80
2022-11-21T19:12:56.439Z,-1.90
2022-11-21T19:15:24.507Z,-1.90
2022-11-21T19:17:52.475Z,-2.00
2022-11-21T19:20:21.031Z,-2.10
2022-11-21T19:22:49.190Z,-2.00
2022-11-21T19:25:18.768Z,-1.70
2022-11-21T19:27:47.067Z,-1.50
2022-11-21T19:30:15.300Z,-1.40
2022-11-21T19:32:43.304Z,-1.40
2022-11-21T19:35:11.969Z,-1.40
2022-11-21T19:37:40.347Z,-1.40
2022-11-21T19:40:10.086Z,-1.50
2022-11-21T19:42:40.493Z,-1.50
2022-11-21T19:45:10.496Z,-1.50
2022-11-21T19:47:38.615Z,-1.50
2022-11-21T19:50:07.637Z,-1.30
2022-11-21T19:52:36.135Z,-1.30
2022-11-21T19:55:05.181Z,-1.10
2022-11-21T19:57:33.533Z,-0.90
2022-11-21T20:00:03.172Z,-0.80
2022-11-21T20:02:38.996Z,-0.80
2022-11-21T20:05:08.085Z,-0.70
2022-11-21T20:07:36.215Z,-0.60
2022-11-21T20:10:05.189Z,-0.60
2022-11-21T20:12:33.459Z,-0.70
2022-11-21T20:15:03.167Z,-0.60
2022-11-21T20:17:31.317Z,-0.50
2022-11-21T20:20:00.028Z,-0.50
2022-11-21T20:22:28.144Z,-0.50
2022-11-21T20:24:56.248Z,-0.50
2022-11-21T20:27:24.620Z,-0.50
2022-11-21T20:29:52.934Z,-0.60
2022-11-21T20:32:22.648Z,-0.60
2022-11-21T20:34:51.508Z,-0.70
2022-11-21T20:37:19.883Z,-0.60
2022-11-21T20:39:48.340Z,-0.60
2022-11-21T20:42:16.716Z,-0.50
2022-11-21T20:47:39.138Z,-0.30
2022-11-21T20:50:08.240Z,-0.20
2022-11-21T20:55:26.098Z,-0.20
2022-11-21T20:57:54.753Z,-0.30
2022-11-21T21:00:22.920Z,-0.40
2022-11-21T21:02:52.389Z,-0.40
2022-11-21T21:05:20.548Z,-0.30
2022-11-21T21:07:48.867Z,-0.40
2022-11-21T21:10:17.925Z,-0.20
2022-11-21T21:12:48.601Z,-0.20
2022-11-21T21:15:16.937Z,-0.20
2022-11-21T21:17:44.994Z,-0.30
2022-11-21T21:20:14.648Z,-0.40
2022-11-21T21:22:42.868Z,-0.40
2022-11-21T21:25:11.163Z,-0.60
2022-11-21T21:27:39.144Z,-0.70
2022-11-21T21:30:08.594Z,-0.80
2022-11-21T21:32:36.591Z,-0.90
2022-11-21T21:35:05.165Z,-1.00
2022-11-21T21:37:34.585Z,-1.10
2022-11-21T21:40:02.961Z,-1.20
2022-11-21T21:42:31.014Z,-1.30
2022-11-21T21:44:58.994Z,-1.40
2022-11-21T21:47:27.171Z,-1.40
2022-11-21T21:49:55.146Z,-1.50
2022-11-21T21:52:23.226Z,-1.50
2022-11-21T21:54:52.575Z,-1.60
2022-11-21T21:57:20.531Z,-1.60
2022-11-21T21:59:49.543Z,-1.70
2022-11-21T22:02:17.749Z,-1.60
2022-11-21T22:04:51.723Z,-1.60
2022-11-21T22:07:20.140Z,-1.60
2022-11-21T22:09:48.564Z,-1.60
2022-11-21T22:12:18.135Z,-1.60
2022-11-21T22:14:46.074Z,-1.70
2022-11-21T22:17:14.113Z,-1.80
2022-11-21T22:19:42.087Z,-1.90
2022-11-21T22:22:10.054Z,-2.00
2022-11-21T22:24:39.259Z,-2.10
2022-11-21T22:27:07.728Z,-2.20
2022-11-21T22:29:37.050Z,-2.30
2022-11-21T22:32:06.934Z,-2.30
2022-11-21T22:34:35.043Z,-2.40
2022-11-21T22:37:03.021Z,-2.40
2022-11-21T22:39:32.987Z,-2.50
2022-11-21T22:42:01.100Z,-2.50
2022-11-21T22:44:29.412Z,-2.60
2022-11-21T22:46:59.789Z,-2.60
2022-11-21T22:49:27.974Z,-2.50
2022-11-21T22:51:55.978Z,-2.60
2022-11-21T22:54:24.032Z,-2.60
2022-11-21T22:56:52.128Z,-2.70
2022-11-21T22:59:20.048Z,-2.70
2022-11-21T23:01:48.221Z,-2.70
2022-11-21T23:04:18.146Z,-2.70
2022-11-21T23:06:46.249Z,-2.70
2022-11-21T23:09:14.497Z,-2.70
2022-11-21T23:11:42.436Z,-2.80
2022-11-21T23:14:10.412Z,-2.80
2022-11-21T23:16:38.555Z,-2.80
2022-11-21T23:19:06.897Z,-2.90
2022-11-21T23:21:36.603Z,-2.90
2022-11-21T23:24:05.043Z,-3.00
2022-11-21T23:26:33.026Z,-2.90
2022-11-21T23:29:07.991Z,-2.90
2022-11-21T23:31:36.728Z,-2.90
2022-11-21T23:34:04.711Z,-2.90
2022-11-21T23:36:32.678Z,-2.90
2022-11-21T23:39:02.051Z,-2.90
2022-11-21T23:41:30.045Z,-2.80
2022-11-21T23:43:59.815Z,-2.80
2022-11-21T23:46:28.090Z,-3.00
2022-11-21T23:48:56.235Z,-3.10
2022-11-21T23:51:24.494Z,-3.10
2022-11-21T23:53:52.804Z,-3.20
2022-11-21T23:56:22.411Z,-3.20
2022-11-21T23:58:50.599Z,-3.20
